Time;durP1;ratioP1;P1;durP2;ratioP2;P2;SDS_P1;SDS_P2;PMS_P1;PMS_P2;Temp;Humidity;BMP_temperature;BMP_pressure;BME280_temperature;BME280_humidity;BME280_pressure;Samples;Min_cycle;Max_cycle;Signal;HPM_P1;HPM_P2
2023/09/16 00:00:23;;;;;;;12.75;5.13;;;17.20;99.90;;;;;;4194369;28;20410;-61
2023/09/16 00:02:24;;;;;;;6.90;4.90;;;17.20;99.90;;;;;;4177451;28;20053;-61
2023/09/16 00:04:25;;;;;;;4.30;3.90;;;17.20;99.90;;;;;;4193658;28;20511;-61
2023/09/16 00:06:26;;;;;;;7.13;4.72;;;17.20;99.90;;;;;;4195042;28;20090;-60
2023/09/16 00:08:27;;;;;;;6.15;4.85;;;17.20;99.90;;;;;;4193492;28;20354;-60
2023/09/16 00:10:29;;;;;;;8.43;5.43;;;17.10;99.90;;;;;;4195092;28;20405;-61
2023/09/16 00:12:30;;;;;;;6.60;4.70;;;17.10;99.90;;;;;;4194114;28;20373;-61
2023/09/16 00:14:31;;;;;;;13.60;5.47;;;17.10;99.90;;;;;;4194590;28;20772;-62
2023/09/16 00:16:32;;;;;;;6.18;5.00;;;17.00;99.90;;;;;;4193283;28;20044;-61
2023/09/16 00:18:33;;;;;;;7.63;4.88;;;17.00;99.90;;;;;;4193877;28;20550;-63
2023/09/16 00:20:35;;;;;;;5.97;4.85;;;17.00;99.90;;;;;;4195105;28;20024;-62
2023/09/16 00:22:36;;;;;;;8.00;4.80;;;17.00;99.90;;;;;;4193480;28;20554;-62
2023/09/16 00:24:37;;;;;;;9.20;5.85;;;17.00;99.90;;;;;;4195335;28;20054;-62
2023/09/16 00:26:41;;;;;;;8.40;5.00;;;17.00;99.90;;;;;;4193115;28;20037;-62
2023/09/16 00:28:43;;;;;;;8.75;6.22;;;17.00;99.90;;;;;;4194806;28;20036;-62
2023/09/16 00:30:45;;;;;;;8.82;5.82;;;17.00;99.90;;;;;;4193784;28;20431;-63
2023/09/16 00:32:46;;;;;;;8.93;5.15;;;17.00;99.90;;;;;;4193513;28;20086;-62
2023/09/16 00:34:48;;;;;;;7.75;4.88;;;16.90;99.90;;;;;;4193867;28;20403;-62
2023/09/16 00:36:49;;;;;;;9.32;4.65;;;17.00;99.90;;;;;;4194560;28;20053;-62
2023/09/16 00:38:51;;;;;;;6.90;4.22;;;17.00;99.90;;;;;;4193658;28;20462;-60
2023/09/16 00:40:52;;;;;;;6.82;4.80;;;17.00;99.90;;;;;;4194204;28;20033;-63
2023/09/16 00:42:53;;;;;;;7.75;5.28;;;17.00;99.90;;;;;;4193916;28;20044;-62
2023/09/16 00:44:54;;;;;;;5.15;4.63;;;17.00;99.90;;;;;;4194316;28;20476;-62
2023/09/16 00:46:55;;;;;;;5.25;4.75;;;17.00;99.90;;;;;;4193285;28;20481;-61
2023/09/16 00:48:57;;;;;;;6.90;5.18;;;17.00;99.90;;;;;;4194007;28;20125;-62
2023/09/16 00:50:58;;;;;;;7.53;6.30;;;17.00;99.90;;;;;;4193795;28;20024;-62
2023/09/16 00:52:59;;;;;;;8.23;4.90;;;17.00;99.90;;;;;;4193499;28;20029;-62
2023/09/16 00:55:01;;;;;;;9.10;5.68;;;16.90;99.90;;;;;;4193955;28;20032;-62
2023/09/16 00:57:04;;;;;;;15.80;5.65;;;16.90;99.90;;;;;;4190837;28;20106;-62
2023/09/16 00:59:05;;;;;;;8.68;5.45;;;17.00;99.90;;;;;;4193388;28;20082;-62
2023/09/16 01:01:07;;;;;;;7.13;5.07;;;16.90;99.90;;;;;;4192962;28;20033;-62
2023/09/16 01:03:09;;;;;;;7.85;5.15;;;16.90;99.90;;;;;;4193934;28;20066;-61
2023/09/16 01:05:17;;;;;;;8.82;5.38;;;16.90;99.90;;;;;;4192030;28;20354;-62
2023/09/16 01:07:18;;;;;;;5.88;4.20;;;16.90;99.90;;;;;;4193855;28;20481;-62
2023/09/16 01:09:20;;;;;;;7.40;5.03;;;16.90;99.90;;;;;;4192531;28;20094;-61
2023/09/16 01:11:24;;;;;;;7.68;4.82;;;16.90;99.90;;;;;;4194282;28;20082;-62
2023/09/16 01:13:25;;;;;;;6.82;4.88;;;16.90;99.90;;;;;;4192366;28;20041;-61
2023/09/16 01:15:31;;;;;;;7.32;4.95;;;16.90;99.90;;;;;;4194291;28;20423;-62
2023/09/16 01:17:59;;;;;;;5.82;5.22;;;16.90;99.90;;;;;;4193302;28;20078;-61
2023/09/16 01:20:11;;;;;;;6.47;4.97;;;16.90;99.90;;;;;;4155565;28;20040;-62
2023/09/16 01:22:14;;;;;;;6.80;4.85;;;16.90;99.90;;;;;;4192874;28;20668;-62
2023/09/16 01:24:17;;;;;;;6.13;4.95;;;16.80;99.90;;;;;;4194024;28;20496;-62
2023/09/16 01:26:18;;;;;;;8.20;5.05;;;16.80;99.90;;;;;;4192557;28;20086;-62
2023/09/16 01:28:19;;;;;;;6.88;5.22;;;16.80;99.90;;;;;;4175668;28;20041;-63
2023/09/16 01:30:21;;;;;;;7.22;5.40;;;16.80;99.90;;;;;;4175882;28;20028;-61
2023/09/16 01:32:28;;;;;;;6.18;5.00;;;16.80;99.90;;;;;;4192438;28;20480;-63
2023/09/16 01:34:41;;;;;;;6.38;4.88;;;16.80;99.90;;;;;;4192592;28;20089;-62
2023/09/16 01:36:43;;;;;;;8.13;5.38;;;16.80;99.90;;;;;;4191056;28;20036;-61
2023/09/16 01:38:48;;;;;;;8.95;5.35;;;16.90;99.90;;;;;;4192425;28;20569;-62
2023/09/16 01:40:52;;;;;;;10.43;5.47;;;16.80;99.90;;;;;;4192940;28;20545;-62
2023/09/16 01:42:54;;;;;;;7.20;5.78;;;16.80;99.90;;;;;;4192657;28;20455;-63
2023/09/16 01:44:55;;;;;;;8.38;5.32;;;16.80;99.90;;;;;;4192698;28;20086;-62
2023/09/16 01:46:57;;;;;;;8.70;5.35;;;16.80;99.90;;;;;;4192968;28;20040;-62
2023/09/16 01:48:58;;;;;;;8.73;6.03;;;16.80;99.90;;;;;;4191893;28;20434;-62
2023/09/16 01:50:59;;;;;;;7.40;5.68;;;16.80;99.90;;;;;;4193696;28;20090;-63
2023/09/16 01:53:01;;;;;;;7.95;5.30;;;16.80;99.90;;;;;;4192728;28;20028;-62
2023/09/16 01:55:03;;;;;;;7.95;5.55;;;16.80;99.90;;;;;;4193775;28;20571;-63
2023/09/16 01:57:04;;;;;;;8.52;5.57;;;16.80;99.90;;;;;;4192460;28;20036;-61
2023/09/16 01:59:05;;;;;;;6.55;5.20;;;16.80;99.90;;;;;;4193578;28;20099;-61
2023/09/16 02:01:11;;;;;;;7.72;4.53;;;16.70;99.90;;;;;;4192209;28;20102;-61
2023/09/16 02:03:12;;;;;;;7.45;5.60;;;16.70;99.90;;;;;;4193529;28;20177;-61
2023/09/16 02:05:13;;;;;;;8.25;4.47;;;16.60;99.90;;;;;;4190780;28;20082;-61
2023/09/16 02:07:14;;;;;;;5.53;4.72;;;16.60;99.90;;;;;;4192722;28;20054;-61
2023/09/16 02:09:16;;;;;;;9.98;5.50;;;16.50;99.90;;;;;;4193502;28;20098;-61
2023/09/16 02:11:17;;;;;;;8.82;5.38;;;16.50;99.90;;;;;;4195596;28;20032;-61
2023/09/16 02:13:20;;;;;;;11.32;5.82;;;16.50;99.90;;;;;;4196606;28;20165;-61
2023/09/16 02:15:21;;;;;;;8.32;6.20;;;16.50;99.90;;;;;;4195087;28;20382;-61
2023/09/16 02:17:22;;;;;;;8.25;6.22;;;16.50;99.90;;;;;;4196423;28;20049;-61
2023/09/16 02:19:25;;;;;;;7.70;6.20;;;16.50;99.90;;;;;;4194718;28;20048;-61
2023/09/16 02:21:27;;;;;;;9.07;7.38;;;16.40;99.90;;;;;;4195707;28;20028;-61
2023/09/16 02:23:29;;;;;;;10.43;8.70;;;16.40;99.90;;;;;;4195843;28;20033;-61
2023/09/16 02:25:33;;;;;;;9.80;7.07;;;16.40;99.90;;;;;;4196695;28;20362;-61
2023/09/16 02:27:34;;;;;;;11.00;8.40;;;16.40;99.90;;;;;;4196113;28;20067;-60
2023/09/16 02:29:35;;;;;;;11.65;7.43;;;16.40;99.90;;;;;;4197219;28;20036;-60
2023/09/16 02:31:36;;;;;;;9.48;7.70;;;16.30;99.90;;;;;;4195726;28;20032;-61
2023/09/16 02:33:37;;;;;;;9.48;7.72;;;16.30;99.90;;;;;;4195794;28;20373;-61
2023/09/16 02:35:39;;;;;;;20.77;15.35;;;16.30;99.90;;;;;;4195131;28;20028;-61
2023/09/16 02:37:41;;;;;;;12.48;9.02;;;16.20;99.90;;;;;;4195816;28;20491;-62
2023/09/16 02:39:42;;;;;;;11.38;7.75;;;16.20;99.90;;;;;;4196143;28;20094;-61
2023/09/16 02:41:43;;;;;;;14.32;9.27;;;16.20;99.90;;;;;;4195044;28;20108;-61
2023/09/16 02:43:45;;;;;;;11.07;7.72;;;16.20;99.90;;;;;;4194934;28;20036;-62
2023/09/16 02:45:46;;;;;;;13.27;8.00;;;16.10;99.90;;;;;;4195920;28;20463;-61
2023/09/16 02:47:49;;;;;;;9.55;7.47;;;16.10;99.90;;;;;;4196004;28;20067;-61
2023/09/16 02:49:50;;;;;;;10.50;7.55;;;16.10;99.90;;;;;;4195636;28;20173;-61
2023/09/16 02:51:51;;;;;;;8.75;6.93;;;16.10;99.90;;;;;;4196495;28;20692;-61
2023/09/16 02:53:54;;;;;;;12.25;7.50;;;16.00;99.90;;;;;;4193737;28;20033;-61
2023/09/16 02:55:56;;;;;;;9.65;6.97;;;16.00;99.90;;;;;;4196334;28;20098;-61
2023/09/16 02:57:59;;;;;;;9.07;7.20;;;16.00;99.90;;;;;;4194443;28;20052;-61
2023/09/16 03:00:00;;;;;;;8.25;6.90;;;16.00;99.90;;;;;;4195973;28;20040;-61
2023/09/16 03:02:02;;;;;;;12.45;8.15;;;16.00;99.90;;;;;;4194447;28;20056;-61
2023/09/16 03:04:04;;;;;;;8.40;6.85;;;16.00;99.90;;;;;;4195932;28;20032;-61
2023/09/16 03:06:05;;;;;;;10.00;7.35;;;16.00;99.90;;;;;;4195119;28;20066;-61
2023/09/16 03:08:06;;;;;;;9.52;6.95;;;16.00;99.90;;;;;;4196680;28;20073;-61
2023/09/16 03:10:07;;;;;;;11.45;6.72;;;16.00;99.90;;;;;;4195049;28;20090;-61
2023/09/16 03:12:09;;;;;;;9.70;7.13;;;15.90;99.90;;;;;;4195294;28;20454;-61
2023/09/16 03:14:10;;;;;;;9.32;6.43;;;15.90;99.90;;;;;;4194761;28;20025;-60
2023/09/16 03:16:16;;;;;;;8.68;6.95;;;15.90;99.90;;;;;;4194247;28;20040;-62
2023/09/16 03:18:17;;;;;;;8.02;7.10;;;15.90;99.90;;;;;;4194980;28;20037;-61
2023/09/16 03:20:19;;;;;;;13.70;7.97;;;15.90;99.90;;;;;;4195185;28;20040;-60
2023/09/16 03:22:20;;;;;;;11.85;8.02;;;15.90;99.90;;;;;;4194057;28;20052;-60
2023/09/16 03:24:21;;;;;;;13.68;7.32;;;15.90;99.90;;;;;;4195373;28;20094;-61
2023/09/16 03:26:22;;;;;;;9.88;7.78;;;15.90;99.90;;;;;;4195065;28;20062;-61
2023/09/16 03:28:23;;;;;;;12.23;7.75;;;15.90;99.90;;;;;;4194410;28;20442;-61
2023/09/16 03:30:24;;;;;;;14.15;7.68;;;15.90;99.90;;;;;;4195098;28;20036;-62
2023/09/16 03:32:29;;;;;;;10.18;7.57;;;15.90;99.90;;;;;;4194014;28;20071;-62
2023/09/16 03:34:30;;;;;;;11.07;7.53;;;15.90;99.90;;;;;;4195782;28;20021;-60
2023/09/16 03:36:31;;;;;;;14.30;7.95;;;15.90;99.90;;;;;;4194804;28;20028;-61
2023/09/16 03:38:34;;;;;;;8.65;6.80;;;15.90;99.90;;;;;;4194802;28;20040;-61
2023/09/16 03:40:35;;;;;;;12.73;7.13;;;15.90;99.90;;;;;;4194617;28;20036;-61
2023/09/16 03:42:36;;;;;;;12.25;7.13;;;15.90;99.90;;;;;;4194929;28;20118;-62
2023/09/16 03:44:38;;;;;;;10.57;7.13;;;15.80;99.90;;;;;;4194162;28;20082;-61
2023/09/16 03:46:39;;;;;;;10.88;7.00;;;15.90;99.90;;;;;;4190886;28;20028;-61
2023/09/16 03:48:40;;;;;;;10.90;7.10;;;15.90;99.90;;;;;;4194917;28;20033;-63
2023/09/16 03:50:41;;;;;;;11.35;7.53;;;15.90;99.90;;;;;;4194360;28;20190;-62
2023/09/16 03:52:42;;;;;;;13.15;7.35;;;15.90;99.90;;;;;;4195239;28;20405;-62
2023/09/16 03:54:44;;;;;;;11.68;7.22;;;15.90;99.90;;;;;;4178763;28;20091;-62
2023/09/16 03:56:45;;;;;;;11.35;7.28;;;15.80;99.90;;;;;;4195428;28;20040;-62
2023/09/16 03:58:46;;;;;;;10.40;7.05;;;15.80;99.90;;;;;;4194475;28;20028;-61
2023/09/16 04:00:50;;;;;;;13.80;7.38;;;15.80;99.90;;;;;;4194873;28;20082;-62
2023/09/16 04:02:51;;;;;;;7.97;5.93;;;15.80;99.90;;;;;;4193959;28;20040;-61
2023/09/16 04:04:53;;;;;;;10.55;6.25;;;15.80;99.90;;;;;;4194364;28;20072;-62
2023/09/16 04:06:54;;;;;;;10.50;6.03;;;15.80;99.90;;;;;;4192647;28;20106;-62
2023/09/16 04:08:55;;;;;;;10.95;6.82;;;15.80;99.90;;;;;;4195359;28;20028;-62
2023/09/16 04:10:57;;;;;;;9.50;6.15;;;15.70;99.90;;;;;;4192734;28;20166;-62
2023/09/16 04:12:58;;;;;;;10.60;6.18;;;15.80;99.90;;;;;;4194197;28;20444;-62
2023/09/16 04:14:59;;;;;;;10.00;6.40;;;15.80;99.90;;;;;;4193495;28;20033;-63
2023/09/16 04:17:00;;;;;;;8.18;6.03;;;15.80;99.90;;;;;;4195012;28;20082;-62
2023/09/16 04:19:01;;;;;;;12.80;6.85;;;15.80;99.90;;;;;;4194124;28;20501;-63
2023/09/16 04:21:03;;;;;;;10.65;5.88;;;15.80;99.90;;;;;;4193971;28;20067;-62
2023/09/16 04:23:04;;;;;;;16.40;6.82;;;15.90;99.90;;;;;;4194853;28;20174;-62
2023/09/16 04:25:05;;;;;;;8.43;5.53;;;16.00;99.90;;;;;;4194156;28;20381;-62
2023/09/16 04:27:07;;;;;;;10.68;6.10;;;16.10;99.90;;;;;;4194432;28;20121;-62
2023/09/16 04:29:08;;;;;;;11.20;6.15;;;16.00;99.90;;;;;;4193970;28;20028;-62
2023/09/16 04:31:09;;;;;;;7.85;5.47;;;16.00;99.90;;;;;;4195075;28;20090;-62
2023/09/16 04:33:10;;;;;;;11.32;5.60;;;15.90;99.90;;;;;;4193557;28;20044;-62
2023/09/16 04:35:12;;;;;;;12.30;6.32;;;15.90;99.90;;;;;;4193029;28;20033;-62
2023/09/16 04:37:14;;;;;;;10.70;5.80;;;15.80;99.90;;;;;;4192239;28;20464;-61
2023/09/16 04:39:16;;;;;;;7.28;5.70;;;15.90;99.90;;;;;;4194511;28;20078;-62
2023/09/16 04:41:21;;;;;;;11.25;5.68;;;15.80;99.90;;;;;;4192912;28;20825;-62
2023/09/16 04:43:25;;;;;;;10.07;5.35;;;15.80;99.90;;;;;;4194102;28;20102;-61
2023/09/16 04:45:26;;;;;;;8.05;5.55;;;15.80;99.90;;;;;;4193282;28;20912;-63
2023/09/16 04:47:28;;;;;;;8.85;5.90;;;15.80;99.90;;;;;;4175738;28;20102;-63
2023/09/16 04:49:29;;;;;;;17.02;6.25;;;15.80;99.90;;;;;;4175604;28;20044;-62
2023/09/16 04:51:30;;;;;;;13.10;6.40;;;15.90;99.90;;;;;;4193476;28;20094;-61
2023/09/16 04:53:34;;;;;;;10.93;5.78;;;15.90;99.90;;;;;;4194182;28;20089;-62
2023/09/16 04:55:36;;;;;;;13.45;5.85;;;15.90;99.90;;;;;;4194179;28;20048;-62
2023/09/16 04:57:37;;;;;;;7.82;5.93;;;15.90;99.90;;;;;;4194322;28;20616;-62
2023/09/16 04:59:38;;;;;;;7.97;5.28;;;16.00;99.90;;;;;;4193021;28;20036;-62
2023/09/16 05:01:39;;;;;;;9.48;5.30;;;16.00;99.90;;;;;;4194502;28;20410;-61
2023/09/16 05:03:40;;;;;;;10.60;5.10;;;16.10;99.90;;;;;;4191909;28;20048;-62
2023/09/16 05:05:41;;;;;;;6.05;5.03;;;16.30;99.90;;;;;;4193744;28;20040;-63
2023/09/16 05:07:42;;;;;;;8.07;5.53;;;16.60;99.90;;;;;;4193181;28;20082;-59
2023/09/16 05:09:44;;;;;;;5.97;4.70;;;16.70;99.90;;;;;;4194360;28;20036;-61
2023/09/16 05:11:45;;;;;;;7.57;4.32;;;17.00;99.90;;;;;;4192311;28;20044;-62
2023/09/16 05:13:46;;;;;;;6.40;4.60;;;17.10;99.90;;;;;;4193671;28;20174;-62
2023/09/16 05:15:49;;;;;;;11.18;4.85;;;17.20;99.90;;;;;;4192998;28;20020;-62
2023/09/16 05:17:51;;;;;;;10.45;4.68;;;17.50;99.90;;;;;;4193435;28;20082;-62
2023/09/16 05:19:52;;;;;;;7.43;4.47;;;17.90;99.90;;;;;;4193094;28;20036;-61
2023/09/16 05:21:53;;;;;;;6.53;5.18;;;18.00;99.90;;;;;;4193778;28;20374;-61
2023/09/16 05:23:55;;;;;;;11.63;4.50;;;18.20;99.90;;;;;;4193521;28;20464;-63
2023/09/16 05:25:56;;;;;;;6.13;4.13;;;18.40;99.90;;;;;;4193271;28;20041;-62
2023/09/16 05:27:57;;;;;;;6.78;3.53;;;18.40;99.90;;;;;;4193967;28;20149;-62
2023/09/16 05:29:58;;;;;;;4.95;3.97;;;18.60;99.90;;;;;;4174294;28;20091;-61
2023/09/16 05:31:59;;;;;;;3.78;3.25;;;18.40;99.90;;;;;;4193373;28;20123;-61
2023/09/16 05:34:01;;;;;;;4.32;3.92;;;18.60;99.90;;;;;;4191987;28;20131;-62
2023/09/16 05:36:02;;;;;;;4.72;3.85;;;18.70;99.90;;;;;;4193801;28;20025;-62
2023/09/16 05:38:04;;;;;;;4.93;3.50;;;18.50;99.90;;;;;;4192761;28;20040;-61
2023/09/16 05:40:05;;;;;;;3.47;3.17;;;18.50;99.90;;;;;;4193979;28;20550;-61
2023/09/16 05:42:07;;;;;;;4.30;3.45;;;18.50;99.90;;;;;;4192671;28;20028;-61
2023/09/16 05:44:08;;;;;;;4.18;3.10;;;18.50;99.90;;;;;;4171641;28;20075;-60
2023/09/16 05:46:09;;;;;;;4.15;3.00;;;18.40;99.90;;;;;;4174958;28;20091;-61
2023/09/16 05:48:10;;;;;;;10.50;4.03;;;18.20;99.90;;;;;;4176889;28;20519;-62
2023/09/16 05:50:13;;;;;;;5.32;3.75;;;18.20;99.90;;;;;;4175628;28;20040;-61
2023/09/16 05:52:14;;;;;;;5.78;3.65;;;18.20;99.90;;;;;;4176834;28;20037;-62
2023/09/16 05:54:17;;;;;;;4.30;3.60;;;18.30;99.90;;;;;;4175896;28;20041;-61
2023/09/16 05:56:19;;;;;;;4.05;3.42;;;18.30;99.90;;;;;;4176485;28;20041;-61
2023/09/16 05:58:20;;;;;;;4.60;2.88;;;18.50;99.90;;;;;;4174248;28;20056;-62
2023/09/16 06:00:21;;;;;;;5.63;2.85;;;18.60;99.90;;;;;;4192101;28;20554;-62
2023/09/16 06:02:23;;;;;;;4.53;3.22;;;18.80;99.90;;;;;;4191816;28;20045;-60
2023/09/16 06:04:24;;;;;;;5.00;3.10;;;19.00;99.90;;;;;;4190986;28;20456;-62
2023/09/16 06:06:26;;;;;;;4.68;2.72;;;19.00;99.90;;;;;;4193727;28;20041;-61
2023/09/16 06:08:27;;;;;;;3.05;2.50;;;18.90;99.90;;;;;;4172754;28;20102;-61
2023/09/16 06:10:28;;;;;;;3.50;2.90;;;19.00;99.90;;;;;;4191956;28;20489;-60
2023/09/16 06:12:29;;;;;;;9.10;3.17;;;19.00;99.90;;;;;;4191134;28;20044;-63
2023/09/16 06:14:30;;;;;;;3.70;3.15;;;18.80;99.90;;;;;;4192847;28;20060;-63
2023/09/16 06:16:32;;;;;;;6.72;3.42;;;18.90;99.90;;;;;;4191667;28;20052;-63
2023/09/16 06:18:35;;;;;;;4.47;3.80;;;19.20;99.90;;;;;;4193493;28;20162;-67
2023/09/16 06:20:36;;;;;;;9.52;4.88;;;19.40;99.90;;;;;;4191770;28;20447;-64
2023/09/16 06:22:37;;;;;;;5.10;3.35;;;19.80;99.90;;;;;;4193155;28;20165;-64
2023/09/16 06:24:38;;;;;;;9.13;3.53;;;20.20;99.90;;;;;;4192842;28;20467;-61
2023/09/16 06:26:39;;;;;;;5.15;2.97;;;20.50;99.90;;;;;;4192943;28;20386;-63
2023/09/16 06:28:42;;;;;;;5.32;2.58;;;20.70;99.90;;;;;;4192415;28;20044;-63
2023/09/16 06:30:43;;;;;;;3.80;2.20;;;20.80;99.90;;;;;;4192992;28;20028;-61
2023/09/16 06:32:44;;;;;;;2.80;2.40;;;20.70;99.90;;;;;;4193178;28;20104;-63
2023/09/16 06:34:45;;;;;;;4.90;2.80;;;20.50;99.90;;;;;;4191703;28;20481;-61
2023/09/16 06:36:46;;;;;;;3.03;2.72;;;20.20;99.90;;;;;;4193419;28;20029;-61
2023/09/16 06:38:48;;;;;;;3.20;2.50;;;20.00;99.90;;;;;;4190487;28;20041;-61
2023/09/16 06:40:49;;;;;;;6.47;2.70;;;20.00;99.90;;;;;;4192796;28;20078;-65
2023/09/16 06:42:50;;;;;;;4.40;2.25;;;20.10;99.90;;;;;;4191771;28;20071;-64
2023/09/16 06:44:54;;;;;;;5.40;2.53;;;20.10;99.90;;;;;;4193666;28;20044;-63
2023/09/16 06:46:57;;;;;;;2.50;2.10;;;20.10;99.90;;;;;;4191746;28;20128;-65
2023/09/16 06:48:58;;;;;;;2.63;2.13;;;20.20;99.90;;;;;;4193558;28;20090;-61
2023/09/16 06:50:59;;;;;;;2.45;2.25;;;20.40;99.90;;;;;;4189933;28;20484;-64
2023/09/16 06:53:00;;;;;;;5.38;2.40;;;20.50;99.90;;;;;;4193120;28;20024;-64
2023/09/16 06:55:01;;;;;;;4.30;2.83;;;20.70;99.90;;;;;;4191979;28;20047;-64
2023/09/16 06:57:03;;;;;;;2.17;1.70;;;20.60;99.90;;;;;;4191399;28;20036;-65
2023/09/16 06:59:04;;;;;;;2.05;1.85;;;20.70;99.90;;;;;;4194287;28;20197;-65
2023/09/16 07:01:12;;;;;;;1.55;1.45;;;20.70;99.90;;;;;;4195355;28;20046;-65
2023/09/16 07:03:13;;;;;;;1.73;1.20;;;21.00;99.90;;;;;;4195268;28;20044;-65
2023/09/16 07:05:14;;;;;;;0.80;0.77;;;21.30;99.90;;;;;;4194822;28;20040;-67
2023/09/16 07:07:16;;;;;;;1.75;0.80;;;21.40;99.90;;;;;;4195725;28;20094;-62
2023/09/16 07:09:17;;;;;;;1.23;0.98;;;21.50;99.90;;;;;;4195269;28;20106;-63
2023/09/16 07:11:18;;;;;;;0.98;0.80;;;21.80;99.90;;;;;;4196222;28;20040;-60
2023/09/16 07:13:19;;;;;;;1.65;0.80;;;22.00;99.90;;;;;;4194673;28;20041;-61
2023/09/16 07:15:21;;;;;;;2.33;1.00;;;22.10;99.90;;;;;;4194956;28;20427;-65
2023/09/16 07:17:22;;;;;;;3.90;0.70;;;22.30;99.90;;;;;;4195054;28;20021;-63
2023/09/16 07:19:23;;;;;;;0.80;0.80;;;22.20;99.90;;;;;;4195187;28;20443;-63
2023/09/16 07:21:24;;;;;;;2.30;0.73;;;22.50;99.90;;;;;;4195052;28;20101;-64
2023/09/16 07:23:25;;;;;;;2.63;1.00;;;22.60;99.90;;;;;;4196228;28;20099;-63
2023/09/16 07:25:27;;;;;;;0.77;0.77;;;22.60;99.90;;;;;;4195096;28;20024;-60
2023/09/16 07:27:28;;;;;;;2.83;1.08;;;22.80;99.90;;;;;;4195268;28;20062;-62
2023/09/16 07:29:29;;;;;;;1.52;0.98;;;22.90;99.90;;;;;;4195063;28;20090;-63
2023/09/16 07:31:30;;;;;;;1.00;0.90;;;22.90;99.90;;;;;;4195302;28;20033;-63
2023/09/16 07:33:32;;;;;;;1.30;1.02;;;22.70;99.90;;;;;;4195006;28;20093;-67
2023/09/16 07:35:33;;;;;;;0.70;0.70;;;22.60;99.90;;;;;;4195023;28;20597;-65
2023/09/16 07:37:34;;;;;;;0.77;0.73;;;22.50;99.90;;;;;;4195642;28;20032;-65
2023/09/16 07:39:35;;;;;;;1.67;0.82;;;22.50;99.90;;;;;;4194226;28;20712;-62
2023/09/16 07:41:36;;;;;;;1.08;0.60;;;22.50;99.90;;;;;;4195006;28;20054;-64
2023/09/16 07:43:37;;;;;;;1.67;1.00;;;22.50;99.90;;;;;;4193335;28;20060;-63
2023/09/16 07:45:40;;;;;;;0.75;0.70;;;22.50;99.90;;;;;;4195946;28;20028;-60
2023/09/16 07:47:41;;;;;;;2.08;0.70;;;22.20;99.90;;;;;;4192651;28;20036;-62
2023/09/16 07:49:42;;;;;;;5.15;2.42;;;22.10;99.90;;;;;;4195350;28;20032;-61
2023/09/16 07:51:45;;;;;;;8.38;3.92;;;22.10;99.90;;;;;;4194547;28;20021;-64
2023/09/16 07:53:47;;;;;;;2.55;0.70;;;22.00;99.90;;;;;;4194679;28;20053;-64
2023/09/16 07:55:48;;;;;;;0.80;0.80;;;21.80;99.90;;;;;;4193664;28;20093;-63
2023/09/16 07:57:49;;;;;;;0.82;0.82;;;21.60;99.90;;;;;;4195557;28;20033;-64
2023/09/16 07:59:50;;;;;;;1.20;1.00;;;21.50;99.90;;;;;;4194611;28;20047;-63
2023/09/16 08:01:51;;;;;;;1.05;1.02;;;21.50;99.90;;;;;;4194221;28;20086;-65
2023/09/16 08:03:52;;;;;;;0.77;0.75;;;21.50;99.90;;;;;;4193953;28;20113;-61
2023/09/16 08:05:54;;;;;;;2.15;1.10;;;21.60;99.90;;;;;;4194619;28;20025;-64
2023/09/16 08:07:55;;;;;;;2.72;0.88;;;21.60;99.90;;;;;;4193736;28;20048;-63
2023/09/16 08:09:56;;;;;;;1.65;1.00;;;21.70;99.90;;;;;;4193310;28;20584;-61
2023/09/16 08:11:57;;;;;;;4.47;0.95;;;21.90;99.90;;;;;;4194216;28;20110;-63
2023/09/16 08:13:58;;;;;;;10.45;6.07;;;22.20;99.90;;;;;;4193413;28;20036;-61
2023/09/16 08:15:59;;;;;;;0.73;0.73;;;22.40;99.90;;;;;;4194930;28;20094;-61
2023/09/16 08:18:01;;;;;;;2.22;1.00;;;22.50;99.90;;;;;;4193492;28;20024;-62
2023/09/16 08:20:02;;;;;;;2.38;1.35;;;22.40;99.90;;;;;;4193374;28;20044;-59
2023/09/16 08:22:03;;;;;;;5.13;0.98;;;22.50;99.90;;;;;;4192958;28;20433;-59
2023/09/16 08:24:04;;;;;;;2.33;1.00;;;22.70;99.90;;;;;;4194243;28;20527;-61
2023/09/16 08:26:05;;;;;;;1.10;1.10;;;22.50;99.90;;;;;;4193908;28;20082;-60
2023/09/16 08:28:06;;;;;;;2.33;0.90;;;22.50;99.90;;;;;;4194785;28;20093;-61
2023/09/16 08:30:08;;;;;;;1.80;0.82;;;22.50;99.90;;;;;;4193854;28;20071;-59
2023/09/16 08:32:09;;;;;;;1.02;1.00;;;22.50;99.90;;;;;;4194246;28;20146;-62
2023/09/16 08:34:10;;;;;;;1.20;1.10;;;22.40;99.90;;;;;;4193048;28;20082;-62
2023/09/16 08:36:11;;;;;;;4.10;1.77;;;22.50;99.90;;;;;;4192689;28;20042;-62
2023/09/16 08:38:12;;;;;;;1.55;1.10;;;22.50;99.90;;;;;;4194461;28;20831;-63
2023/09/16 08:40:14;;;;;;;1.38;1.00;;;22.60;99.90;;;;;;4193135;28;20435;-65
2023/09/16 08:42:25;;;;;;;4.72;1.20;;;22.60;99.90;;;;;;4194847;28;20476;-63
2023/09/16 08:44:29;;;;;;;2.03;1.20;;;22.60;99.90;;;;;;4192731;28;20049;-61
2023/09/16 08:46:34;;;;;;;2.50;1.45;;;22.70;99.90;;;;;;4194346;28;20032;-64
2023/09/16 08:48:37;;;;;;;2.85;1.25;;;23.00;99.90;;;;;;4192879;28;20441;-63
2023/09/16 08:50:40;;;;;;;3.05;1.40;;;22.90;99.90;;;;;;4194615;28;20117;-62
2023/09/16 08:52:50;;;;;;;1.67;1.20;;;23.00;99.90;;;;;;4192213;28;20058;-61
2023/09/16 08:54:51;;;;;;;1.90;1.25;;;22.70;99.90;;;;;;4194132;28;20077;-65
2023/09/16 08:56:53;;;;;;;1.40;1.30;;;22.50;99.90;;;;;;4192840;28;20993;-66
2023/09/16 08:58:55;;;;;;;2.90;1.23;;;22.30;99.90;;;;;;4193938;28;20109;-64
2023/09/16 09:00:56;;;;;;;1.23;1.13;;;22.50;99.90;;;;;;4192240;28;20110;-64
2023/09/16 09:02:57;;;;;;;1.20;1.10;;;22.60;99.90;;;;;;4193736;28;20473;-63
2023/09/16 09:04:59;;;;;;;2.35;1.48;;;22.80;99.90;;;;;;4192294;28;20052;-63
2023/09/16 09:07:02;;;;;;;1.13;1.02;;;23.00;99.90;;;;;;4193935;28;20074;-63
2023/09/16 09:09:03;;;;;;;2.78;1.55;;;23.30;99.90;;;;;;4193310;28;20025;-63
2023/09/16 09:11:06;;;;;;;2.42;1.33;;;23.30;99.90;;;;;;4193072;28;20095;-63
2023/09/16 09:13:12;;;;;;;1.42;1.25;;;23.40;99.90;;;;;;4192595;28;20396;-63
2023/09/16 09:15:15;;;;;;;1.27;1.10;;;23.40;99.90;;;;;;4192214;28;20037;-63
2023/09/16 09:17:17;;;;;;;1.40;1.30;;;23.40;99.90;;;;;;4193437;28;20041;-64
2023/09/16 09:19:20;;;;;;;2.55;1.33;;;23.20;99.90;;;;;;4192051;28;20048;-61
2023/09/16 09:21:22;;;;;;;1.60;1.10;;;23.20;99.90;;;;;;4192792;28;20113;-64
2023/09/16 09:23:24;;;;;;;1.92;1.10;;;23.20;99.90;;;;;;4192755;28;20044;-65
2023/09/16 09:25:27;;;;;;;3.40;1.27;;;23.00;99.90;;;;;;4192854;28;20106;-64
2023/09/16 09:27:28;;;;;;;5.63;1.40;;;22.80;99.90;;;;;;4191009;28;20032;-64
2023/09/16 09:29:29;;;;;;;1.42;1.33;;;22.60;99.90;;;;;;4193451;28;20534;-61
2023/09/16 09:31:31;;;;;;;1.00;0.88;;;22.50;99.90;;;;;;4191289;28;20113;-63
2023/09/16 09:33:40;;;;;;;1.20;1.10;;;22.30;99.90;;;;;;4194065;28;20032;-62
2023/09/16 09:35:42;;;;;;;0.90;0.90;;;22.20;99.90;;;;;;4192935;28;20032;-62
2023/09/16 09:37:43;;;;;;;1.70;1.48;;;22.20;99.90;;;;;;4193160;28;20481;-61
2023/09/16 09:39:45;;;;;;;1.35;1.25;;;22.30;99.90;;;;;;4192067;28;20041;-61
2023/09/16 09:41:49;;;;;;;1.20;1.10;;;22.40;99.90;;;;;;4193503;28;20044;-63
2023/09/16 09:43:53;;;;;;;3.20;1.17;;;22.30;99.90;;;;;;4192637;28;20052;-63
2023/09/16 09:45:54;;;;;;;3.80;1.20;;;22.30;99.90;;;;;;4193984;28;20028;-65
2023/09/16 09:47:55;;;;;;;3.45;1.45;;;22.30;99.90;;;;;;4193134;28;20020;-62
2023/09/16 09:49:57;;;;;;;1.67;1.58;;;22.20;99.90;;;;;;4192703;28;20484;-64
2023/09/16 09:51:58;;;;;;;1.30;1.00;;;22.20;99.90;;;;;;4192801;28;20090;-63
2023/09/16 09:53:59;;;;;;;1.42;0.90;;;22.30;99.90;;;;;;4193030;28;20093;-64
2023/09/16 09:56:00;;;;;;;1.13;1.02;;;22.30;99.90;;;;;;4193171;28;20064;-63
2023/09/16 09:58:02;;;;;;;1.40;1.30;;;22.40;99.90;;;;;;4193355;28;20036;-63
2023/09/16 10:00:05;;;;;;;2.55;1.30;;;22.40;99.90;;;;;;4194189;28;20017;-64
2023/09/16 10:02:06;;;;;;;1.92;1.38;;;22.40;99.90;;;;;;4191945;28;20066;-62
2023/09/16 10:04:09;;;;;;;1.88;1.35;;;22.40;99.90;;;;;;4193775;28;20822;-63
2023/09/16 10:06:15;;;;;;;2.75;2.00;;;22.40;99.90;;;;;;4192025;28;20062;-63
2023/09/16 10:08:17;;;;;;;2.40;1.10;;;22.50;99.90;;;;;;4193899;28;20032;-62
2023/09/16 10:10:22;;;;;;;1.55;1.35;;;22.50;99.90;;;;;;4193040;28;20463;-63
2023/09/16 10:12:23;;;;;;;2.17;0.95;;;22.50;99.90;;;;;;4194338;28;20033;-64
2023/09/16 10:14:25;;;;;;;2.08;0.90;;;22.60;99.90;;;;;;4193129;28;20036;-62
2023/09/16 10:16:26;;;;;;;1.92;1.15;;;22.70;99.90;;;;;;4193059;28;20129;-62
2023/09/16 10:18:28;;;;;;;1.10;1.00;;;22.90;99.90;;;;;;4192830;28;20067;-61
2023/09/16 10:20:38;;;;;;;1.90;1.58;;;23.00;99.90;;;;;;4193656;28;20032;-63
2023/09/16 10:22:40;;;;;;;1.00;1.00;;;23.00;99.90;;;;;;4193360;28;20032;-62
2023/09/16 10:24:43;;;;;;;1.40;1.30;;;22.90;99.90;;;;;;4192485;28;20045;-64
2023/09/16 10:26:46;;;;;;;3.00;1.40;;;23.10;99.90;;;;;;4193255;28;20514;-62
2023/09/16 10:28:52;;;;;;;1.40;1.30;;;23.30;99.90;;;;;;4192190;28;20166;-61
2023/09/16 10:30:53;;;;;;;3.10;1.50;;;23.50;99.90;;;;;;4193410;28;20025;-63
2023/09/16 10:32:54;;;;;;;1.65;1.52;;;23.50;99.90;;;;;;4195244;28;20044;-61